createdAt,value
2022-08-07T00:02:37.155Z,10.23
2022-08-07T00:05:40.286Z,10.40
2022-08-07T00:08:47.710Z,10.82
2022-08-07T00:11:55.787Z,11.20
2022-08-07T00:15:06.664Z,11.90
2022-08-07T00:18:18.886Z,11.63
2022-08-07T00:21:55.970Z,13.40
2022-08-07T00:24:50.378Z,15.60
2022-08-07T00:27:56.525Z,14.50
2022-08-07T00:31:12.506Z,13.10
2022-08-07T00:34:21.672Z,14.25
2022-08-07T00:37:27.639Z,13.63
2022-08-07T00:40:40.980Z,13.27
2022-08-07T00:44:01.402Z,12.15
2022-08-07T00:47:15.867Z,12.65
2022-08-07T00:50:46.145Z,12.85
2022-08-07T00:53:56.612Z,12.45
2022-08-07T00:57:03.393Z,11.73
2022-08-07T01:00:09.935Z,11.80
2022-08-07T01:03:19.405Z,12.23
2022-08-07T01:06:44.547Z,11.93
2022-08-07T01:10:06.537Z,11.50
2022-08-07T01:13:16.439Z,11.88
2022-08-07T01:16:30.438Z,12.40
2022-08-07T01:19:42.054Z,11.48
2022-08-07T01:23:12.328Z,11.93
2022-08-07T01:26:20.951Z,12.32
2022-08-07T01:29:31.353Z,11.15
2022-08-07T01:32:39.471Z,11.95
2022-08-07T01:35:54.427Z,10.80
2022-08-07T01:39:15.749Z,11.35
2022-08-07T01:42:38.706Z,11.70
2022-08-07T01:45:54.346Z,10.93
2022-08-07T01:49:02.461Z,11.07
2022-08-07T01:52:08.767Z,10.35
2022-08-07T01:55:21.960Z,10.85
2022-08-07T01:58:33.161Z,10.88
2022-08-07T02:02:02.837Z,10.27
2022-08-07T02:05:15.780Z,10.52
2022-08-07T02:08:41.706Z,9.65
2022-08-07T02:12:03.460Z,9.23
2022-08-07T02:15:14.576Z,9.52
2022-08-07T02:18:23.423Z,8.93
2022-08-07T02:21:56.463Z,9.27
2022-08-07T02:24:57.766Z,9.02
2022-08-07T02:31:28.176Z,9.32
2022-08-07T02:34:35.665Z,8.55
2022-08-07T02:37:55.440Z,8.93
2022-08-07T02:41:04.102Z,8.32
2022-08-07T02:44:13.340Z,8.07
2022-08-07T02:47:44.826Z,8.85
2022-08-07T02:50:55.855Z,8.32
2022-08-07T02:54:03.653Z,8.68
2022-08-07T02:57:11.010Z,8.03
2022-08-07T03:00:20.450Z,8.98
2022-08-07T03:03:49.479Z,8.90
2022-08-07T03:07:03.195Z,9.20
2022-08-07T03:10:14.233Z,8.35
2022-08-07T03:13:20.165Z,8.30
2022-08-07T03:16:28.346Z,8.18
2022-08-07T03:22:50.163Z,7.60
2022-08-07T03:25:58.525Z,8.13
2022-08-07T03:29:10.531Z,7.80
2022-08-07T03:32:19.983Z,8.05
2022-08-07T03:35:26.361Z,8.05
2022-08-07T03:38:34.937Z,7.93
2022-08-07T03:41:47.677Z,8.50
2022-08-07T03:44:58.102Z,7.90
2022-08-07T03:48:10.088Z,8.50
2022-08-07T03:51:17.357Z,8.75
2022-08-07T03:54:35.488Z,8.07
2022-08-07T03:58:33.044Z,7.88
2022-08-07T04:01:22.739Z,7.80
2022-08-07T04:04:28.866Z,7.80
2022-08-07T04:07:48.410Z,7.35
2022-08-07T04:12:24.567Z,8.38
2022-08-07T04:14:37.642Z,8.20
2022-08-07T04:18:30.827Z,7.85
2022-08-07T04:21:11.279Z,7.90
2022-08-07T04:24:26.851Z,7.85
2022-08-07T04:27:46.169Z,7.68
2022-08-07T04:31:05.477Z,7.32
2022-08-07T04:34:16.662Z,7.93
2022-08-07T04:37:22.881Z,8.32
2022-08-07T04:40:32.184Z,8.20
2022-08-07T04:44:12.443Z,8.20
2022-08-07T04:47:56.748Z,7.47
2022-08-07T04:50:41.669Z,8.27
2022-08-07T04:54:05.563Z,7.78
2022-08-07T04:58:12.435Z,7.55
2022-08-07T05:00:49.975Z,7.20
2022-08-07T05:04:06.550Z,7.55
2022-08-07T05:07:20.380Z,7.72
2022-08-07T05:10:33.977Z,7.50
2022-08-07T05:14:55.447Z,7.18
2022-08-07T05:17:52.481Z,7.22
2022-08-07T05:20:44.875Z,7.53
2022-08-07T05:23:52.212Z,8.00
2022-08-07T05:27:00.401Z,7.40
2022-08-07T05:30:06.729Z,7.53
2022-08-07T05:33:21.302Z,7.90
2022-08-07T05:36:30.382Z,7.40
2022-08-07T05:40:12.759Z,7.85
2022-08-07T05:43:04.740Z,7.25
2022-08-07T05:46:16.171Z,7.90
2022-08-07T05:49:25.154Z,7.57
2022-08-07T05:52:33.039Z,7.72
2022-08-07T05:56:02.367Z,7.90
2022-08-07T05:59:10.423Z,8.20
2022-08-07T06:02:22.178Z,7.47
2022-08-07T06:05:40.589Z,8.18
2022-08-07T06:08:56.945Z,8.18
2022-08-07T06:12:03.649Z,7.53
2022-08-07T06:15:15.958Z,7.40
2022-08-07T06:18:22.473Z,8.32
2022-08-07T06:22:16.917Z,7.88
2022-08-07T06:25:03.037Z,9.15
2022-08-07T06:28:10.606Z,7.90
2022-08-07T06:31:20.126Z,7.90
2022-08-07T06:34:30.874Z,7.80
2022-08-07T06:37:43.508Z,7.80
2022-08-07T06:40:51.987Z,8.15
2022-08-07T06:44:01.800Z,6.97
2022-08-07T06:47:15.618Z,7.60
2022-08-07T06:50:22.080Z,7.50
2022-08-07T06:55:28.822Z,8.32
2022-08-07T06:57:00.200Z,7.85
2022-08-07T07:00:18.276Z,8.30
2022-08-07T07:03:39.729Z,8.82
2022-08-07T07:06:57.660Z,7.63
2022-08-07T07:10:09.567Z,8.10
2022-08-07T07:13:55.366Z,7.97
2022-08-07T07:19:59.150Z,7.68
2022-08-07T07:24:08.992Z,8.38
2022-08-07T07:26:37.241Z,7.88
2022-08-07T07:30:08.694Z,8.40
2022-08-07T07:33:12.362Z,7.90
2022-08-07T07:36:19.852Z,8.75
2022-08-07T07:39:45.572Z,8.18
2022-08-07T07:42:56.369Z,8.90
2022-08-07T07:46:39.772Z,11.15
2022-08-07T07:50:33.643Z,8.07
2022-08-07T07:52:55.627Z,7.60
2022-08-07T07:56:02.990Z,13.80
2022-08-07T07:59:13.038Z,10.70
2022-08-07T08:02:35.518Z,7.93
2022-08-07T08:05:53.714Z,7.45
2022-08-07T08:09:01.508Z,7.07
2022-08-07T08:12:06.815Z,7.50
2022-08-07T08:15:15.210Z,8.50
2022-08-07T08:18:22.268Z,6.93
2022-08-07T08:22:00.674Z,7.55
2022-08-07T08:25:41.955Z,8.52
2022-08-07T08:28:47.401Z,14.55
2022-08-07T08:31:58.573Z,7.72
2022-08-07T08:35:13.677Z,7.78
2022-08-07T08:38:29.491Z,8.43
2022-08-07T08:41:57.522Z,8.75
2022-08-07T08:45:13.218Z,7.47
2022-08-07T08:48:28.419Z,7.47
2022-08-07T08:52:12.798Z,7.90
2022-08-07T08:55:07.714Z,8.30
2022-08-07T08:58:24.751Z,7.90
2022-08-07T09:01:39.984Z,7.47
2022-08-07T09:04:54.057Z,7.00
2022-08-07T09:08:05.450Z,7.18
2022-08-07T09:11:25.016Z,6.97
2022-08-07T09:14:58.806Z,7.88
2022-08-07T09:18:22.498Z,7.70
2022-08-07T09:21:57.940Z,7.25
2022-08-07T09:25:11.941Z,6.93
2022-08-07T09:30:03.990Z,7.60
2022-08-07T09:31:54.930Z,6.63
2022-08-07T09:36:00.829Z,6.70
2022-08-07T09:38:39.917Z,6.65
2022-08-07T09:42:02.930Z,6.72
2022-08-07T09:47:42.628Z,6.17
2022-08-07T09:49:59.590Z,6.10
2022-08-07T09:52:34.595Z,6.20
2022-08-07T09:56:03.400Z,6.55
2022-08-07T09:59:17.641Z,6.75
2022-08-07T10:02:40.753Z,6.25
2022-08-07T10:06:18.087Z,7.40
2022-08-07T10:10:00.148Z,6.72
2022-08-07T10:13:54.681Z,7.18
2022-08-07T10:16:59.593Z,6.68
2022-08-07T10:20:15.296Z,6.43
2022-08-07T10:24:06.263Z,6.20
2022-08-07T10:27:15.656Z,6.30
2022-08-07T10:30:29.600Z,6.63
2022-08-07T10:34:05.851Z,6.95
2022-08-07T10:37:26.528Z,6.45
2022-08-07T10:40:48.386Z,6.05
2022-08-07T10:44:07.678Z,6.30
2022-08-07T10:47:27.114Z,5.47
2022-08-07T10:50:50.102Z,5.57
2022-08-07T10:54:00.345Z,5.55
2022-08-07T10:57:11.800Z,6.47
2022-08-07T11:00:39.181Z,8.30
2022-08-07T11:03:55.145Z,7.00
2022-08-07T11:07:24.661Z,6.93
2022-08-07T11:10:38.034Z,7.30
2022-08-07T11:14:44.699Z,6.97
2022-08-07T11:17:23.235Z,6.68
2022-08-07T11:20:54.719Z,6.65
2022-08-07T11:24:08.470Z,6.82
2022-08-07T11:27:16.821Z,5.85
2022-08-07T11:30:39.233Z,6.45
2022-08-07T11:33:58.483Z,6.38
2022-08-07T11:37:21.177Z,6.50
2022-08-07T11:40:36.750Z,6.43
2022-08-07T11:44:11.170Z,5.85
2022-08-07T11:47:21.287Z,6.03
2022-08-07T11:50:44.728Z,5.47
2022-08-07T11:54:14.347Z,5.80
2022-08-07T11:57:59.533Z,6.37
2022-08-07T12:04:00.302Z,6.00
2022-08-07T12:07:20.175Z,7.57
2022-08-07T12:10:43.062Z,5.75
2022-08-07T12:13:51.034Z,6.47
2022-08-07T12:16:59.037Z,6.32
2022-08-07T12:20:20.850Z,5.25
2022-08-07T12:24:06.727Z,5.90
2022-08-07T12:27:15.885Z,5.75
2022-08-07T12:30:23.424Z,5.13
2022-08-07T12:33:31.015Z,5.85
2022-08-07T12:36:55.805Z,4.85
2022-08-07T12:40:01.636Z,4.70
2022-08-07T12:44:02.284Z,4.45
2022-08-07T12:46:52.742Z,4.68
2022-08-07T12:50:38.697Z,5.68
2022-08-07T12:54:03.433Z,5.05
2022-08-07T12:57:07.403Z,5.07
2022-08-07T13:00:31.350Z,3.65
2022-08-07T13:04:02.203Z,3.90
2022-08-07T13:08:12.331Z,4.78
2022-08-07T13:10:52.700Z,3.50
2022-08-07T13:14:01.103Z,3.90
2022-08-07T13:17:18.385Z,4.22
2022-08-07T13:20:30.805Z,3.60
2022-08-07T13:24:04.186Z,4.18
2022-08-07T13:27:10.734Z,4.20
2022-08-07T13:30:18.950Z,3.25
2022-08-07T13:34:31.999Z,3.30
2022-08-07T13:36:57.545Z,3.88
2022-08-07T13:40:36.239Z,4.03
2022-08-07T13:43:44.410Z,3.30
2022-08-07T13:47:00.090Z,3.80
2022-08-07T13:53:36.005Z,3.92
2022-08-07T13:57:00.743Z,3.25
2022-08-07T14:00:07.955Z,3.47
2022-08-07T14:03:28.987Z,3.05
2022-08-07T14:06:36.524Z,3.75
2022-08-07T14:10:02.889Z,3.25
2022-08-07T14:13:16.249Z,3.53
2022-08-07T14:16:27.090Z,3.53
2022-08-07T14:20:40.393Z,3.80
2022-08-07T14:23:06.235Z,3.75
2022-08-07T14:26:28.264Z,3.63
2022-08-07T14:30:07.854Z,3.55
2022-08-07T14:33:05.293Z,3.80
2022-08-07T14:36:11.572Z,3.58
2022-08-07T14:40:15.517Z,4.07
2022-08-07T14:46:17.384Z,3.90
2022-08-07T14:52:53.167Z,4.05
2022-08-07T14:56:02.074Z,3.67
2022-08-07T14:59:14.073Z,4.25
2022-08-07T15:02:39.279Z,4.25
2022-08-07T15:05:54.970Z,4.10
2022-08-07T15:12:42.167Z,4.53
2022-08-07T15:15:53.519Z,3.47
2022-08-07T15:19:00.828Z,3.85
2022-08-07T15:22:23.073Z,3.57
2022-08-07T15:25:36.946Z,4.15
2022-08-07T15:28:51.681Z,4.25
2022-08-07T15:32:05.217Z,3.80
2022-08-07T15:35:16.745Z,3.83
2022-08-07T15:45:55.897Z,4.75
2022-08-07T15:52:29.597Z,4.22
2022-08-07T15:55:53.267Z,3.65
2022-08-07T15:59:04.205Z,3.50
2022-08-07T16:02:15.083Z,4.28
2022-08-07T16:05:31.306Z,3.58
2022-08-07T16:08:38.904Z,4.50
2022-08-07T16:11:55.808Z,3.67
2022-08-07T16:15:05.625Z,4.00
2022-08-07T16:18:49.809Z,6.15
2022-08-07T16:22:04.323Z,4.35
2022-08-07T16:25:54.631Z,4.20
2022-08-07T16:30:07.536Z,4.20
2022-08-07T16:32:34.797Z,4.25
2022-08-07T16:35:51.515Z,4.43
2022-08-07T16:39:21.796Z,4.10
2022-08-07T16:42:52.039Z,4.38
2022-08-07T16:47:05.820Z,4.20
2022-08-07T16:50:20.185Z,4.43
2022-08-07T16:54:02.037Z,5.13
2022-08-07T16:57:15.244Z,4.20
2022-08-07T17:00:29.634Z,4.20
2022-08-07T17:03:59.576Z,4.18
2022-08-07T17:07:13.498Z,4.15
2022-08-07T17:10:32.790Z,4.18
2022-08-07T17:14:19.231Z,4.10
2022-08-07T17:17:46.175Z,4.35
2022-08-07T17:20:54.809Z,4.60
2022-08-07T17:24:08.589Z,5.32
2022-08-07T17:27:19.992Z,5.53
2022-08-07T17:30:33.417Z,5.10
2022-08-07T17:34:33.468Z,5.43
2022-08-07T17:37:14.353Z,4.85
2022-08-07T17:40:42.719Z,4.72
2022-08-07T17:44:02.757Z,4.95
2022-08-07T17:47:17.078Z,3.97
2022-08-07T17:50:48.287Z,4.85
2022-08-07T17:54:06.546Z,4.50
2022-08-07T17:57:22.051Z,5.13
2022-08-07T18:00:34.392Z,4.72
2022-08-07T18:04:16.790Z,4.82
2022-08-07T18:07:34.074Z,5.15
2022-08-07T18:12:07.066Z,5.43
2022-08-07T18:14:14.283Z,4.60
2022-08-07T18:18:47.124Z,5.47
2022-08-07T18:21:42.400Z,6.15
2022-08-07T18:24:35.355Z,5.03
2022-08-07T18:27:52.164Z,4.60
2022-08-07T18:31:02.994Z,5.45
2022-08-07T18:34:37.788Z,4.70
2022-08-07T18:38:58.723Z,5.40
2022-08-07T18:41:20.586Z,5.30
2022-08-07T18:44:32.704Z,4.60
2022-08-07T18:47:44.556Z,5.30
2022-08-07T18:51:03.164Z,5.18
2022-08-07T18:54:30.611Z,5.90
2022-08-07T18:57:41.458Z,6.05
2022-08-07T19:00:55.260Z,6.13
2022-08-07T19:04:09.644Z,5.95
2022-08-07T19:07:22.791Z,5.63
2022-08-07T19:10:49.546Z,6.30
2022-08-07T19:14:02.617Z,6.95
2022-08-07T19:18:03.844Z,8.90
2022-08-07T19:21:08.341Z,7.13
2022-08-07T19:24:30.126Z,9.23
2022-08-07T19:28:58.448Z,7.35
2022-08-07T19:31:39.544Z,7.10
2022-08-07T19:34:39.261Z,7.22
2022-08-07T19:37:55.486Z,6.28
2022-08-07T19:41:03.433Z,6.38
2022-08-07T19:44:22.083Z,5.95
2022-08-07T19:47:36.373Z,6.15
2022-08-07T19:50:48.703Z,5.50
2022-08-07T19:54:32.021Z,5.22
2022-08-07T19:58:02.866Z,5.95
2022-08-07T20:00:58.852Z,7.00
2022-08-07T20:04:07.426Z,6.53
2022-08-07T20:07:23.487Z,5.97
2022-08-07T20:10:55.149Z,6.38
2022-08-07T20:17:08.920Z,6.78
2022-08-07T20:20:15.459Z,7.10
2022-08-07T20:23:40.645Z,7.05
2022-08-07T20:26:52.398Z,8.75
2022-08-07T20:30:00.692Z,8.43
2022-08-07T20:33:24.404Z,8.25
2022-08-07T20:36:36.520Z,8.15
2022-08-07T20:40:02.425Z,8.45
2022-08-07T20:43:19.469Z,8.35
2022-08-07T20:46:32.366Z,8.23
2022-08-07T20:49:58.976Z,7.28
2022-08-07T20:53:08.626Z,7.53
2022-08-07T20:56:14.618Z,7.70
2022-08-07T21:00:05.394Z,7.60
2022-08-07T21:03:02.363Z,7.93
2022-08-07T21:06:21.637Z,7.68
2022-08-07T21:09:51.788Z,7.28
2022-08-07T21:12:59.942Z,6.68
2022-08-07T21:16:09.554Z,7.73
2022-08-07T21:19:15.577Z,7.70
2022-08-07T21:22:28.462Z,8.60
2022-08-07T21:25:38.656Z,8.15
2022-08-07T21:28:50.927Z,8.00
2022-08-07T21:32:42.914Z,8.20
2022-08-07T21:35:34.572Z,8.82
2022-08-07T21:39:05.531Z,9.77
2022-08-07T21:42:49.503Z,9.60
2022-08-07T21:46:09.033Z,8.70
2022-08-07T21:49:25.718Z,9.47
2022-08-07T21:52:39.217Z,8.23
2022-08-07T21:55:52.897Z,8.60
2022-08-07T21:59:01.650Z,8.63
2022-08-07T22:02:13.563Z,9.02
2022-08-07T22:05:44.845Z,9.00
2022-08-07T22:08:49.276Z,9.05
2022-08-07T22:12:05.328Z,10.32
2022-08-07T22:16:42.362Z,9.82
2022-08-07T22:22:04.409Z,10.30
2022-08-07T22:25:15.215Z,10.48
2022-08-07T22:28:31.962Z,9.05
2022-08-07T22:32:03.348Z,10.02
2022-08-07T22:35:11.348Z,10.63
2022-08-07T22:38:20.604Z,10.80
2022-08-07T22:42:03.448Z,17.38
2022-08-07T22:45:03.639Z,27.80
2022-08-07T22:48:31.630Z,12.88
2022-08-07T22:51:53.787Z,13.88
2022-08-07T22:55:22.480Z,14.30
2022-08-07T22:58:40.012Z,13.48
2022-08-07T23:02:02.749Z,14.52
2022-08-07T23:06:09.519Z,11.27
2022-08-07T23:10:01.036Z,12.15
2022-08-07T23:12:32.643Z,12.43
2022-08-07T23:16:05.493Z,11.55
2022-08-07T23:19:38.724Z,10.85
2022-08-07T23:22:58.854Z,10.65
2022-08-07T23:26:13.657Z,11.57
2022-08-07T23:29:43.468Z,11.23
2022-08-07T23:34:36.601Z,11.68
2022-08-07T23:36:54.660Z,12.20
2022-08-07T23:40:16.070Z,11.32
2022-08-07T23:43:38.247Z,11.68
2022-08-07T23:47:00.769Z,12.35
2022-08-07T23:50:20.620Z,13.48
2022-08-07T23:53:50.027Z,13.82
2022-08-07T23:57:04.052Z,13.15
